createdAt,value
2022-10-19T00:01:16.685Z,100.00
2022-10-19T00:03:45.329Z,100.00
2022-10-19T00:06:30.515Z,100.00
2022-10-19T00:09:02.304Z,100.00
2022-10-19T00:11:30.629Z,100.00
2022-10-19T00:13:58.678Z,100.00
2022-10-19T00:16:28.503Z,100.00
2022-10-19T00:19:02.868Z,100.00
2022-10-19T00:21:30.839Z,100.00
2022-10-19T00:23:59.880Z,100.00
2022-10-19T00:26:26.942Z,100.00
2022-10-19T00:28:55.559Z,100.00
2022-10-19T00:31:24.782Z,100.00
2022-10-19T00:33:52.713Z,100.00
2022-10-19T00:36:27.025Z,100.00
2022-10-19T00:38:55.781Z,100.00
2022-10-19T00:41:26.411Z,100.00
2022-10-19T00:43:59.353Z,100.00
2022-10-19T00:46:30.116Z,100.00
2022-10-19T00:49:07.105Z,100.00
2022-10-19T00:51:40.690Z,100.00
2022-10-19T00:54:09.098Z,100.00
2022-10-19T00:56:39.957Z,100.00
2022-10-19T00:59:09.163Z,100.00
2022-10-19T01:01:37.016Z,100.00
2022-10-19T01:04:05.005Z,100.00
2022-10-19T01:06:34.358Z,100.00
2022-10-19T01:09:03.454Z,100.00
2022-10-19T01:11:48.966Z,100.00
2022-10-19T01:14:21.894Z,100.00
2022-10-19T01:17:07.628Z,100.00
2022-10-19T01:20:12.011Z,100.00
2022-10-19T01:23:17.370Z,100.00
2022-10-19T01:26:12.847Z,100.00
2022-10-19T01:29:18.157Z,100.00
2022-10-19T01:31:54.668Z,100.00
2022-10-19T01:34:32.998Z,100.00
2022-10-19T01:37:23.752Z,100.00
2022-10-19T01:40:22.882Z,100.00
2022-10-19T01:43:00.358Z,100.00
2022-10-19T01:45:42.960Z,100.00
2022-10-19T01:48:19.450Z,100.00
2022-10-19T01:50:53.738Z,100.00
2022-10-19T01:53:23.493Z,100.00
2022-10-19T01:55:52.518Z,100.00
2022-10-19T01:58:26.950Z,100.00
2022-10-19T02:00:57.550Z,100.00
2022-10-19T02:03:26.195Z,100.00
2022-10-19T02:05:55.148Z,100.00
2022-10-19T02:08:31.686Z,100.00
2022-10-19T02:11:01.270Z,100.00
2022-10-19T02:13:30.963Z,100.00
2022-10-19T02:16:02.343Z,100.00
2022-10-19T02:18:36.723Z,100.00
2022-10-19T02:21:08.014Z,100.00
2022-10-19T02:23:36.125Z,100.00
2022-10-19T02:26:04.714Z,100.00
2022-10-19T02:28:33.315Z,100.00
2022-10-19T02:31:01.622Z,100.00
2022-10-19T02:33:30.009Z,100.00
2022-10-19T02:35:58.031Z,100.00
2022-10-19T02:38:26.587Z,100.00
2022-10-19T02:41:43.043Z,100.00
2022-10-19T02:44:48.237Z,100.00
2022-10-19T02:47:36.586Z,100.00
2022-10-19T02:50:11.062Z,100.00
2022-10-19T02:52:39.498Z,100.00
2022-10-19T02:55:08.095Z,100.00
2022-10-19T02:57:35.306Z,100.00
2022-10-19T03:00:04.170Z,100.00
2022-10-19T03:02:31.145Z,100.00
2022-10-19T03:04:58.150Z,100.00
2022-10-19T03:07:25.106Z,100.00
2022-10-19T03:09:52.199Z,100.00
2022-10-19T03:12:20.255Z,100.00
2022-10-19T03:14:48.356Z,100.00
2022-10-19T03:17:15.380Z,100.00
2022-10-19T03:19:42.397Z,100.00
2022-10-19T03:22:09.386Z,100.00
2022-10-19T03:24:36.332Z,100.00
2022-10-19T03:27:03.380Z,100.00
2022-10-19T03:29:30.341Z,100.00
2022-10-19T03:31:58.288Z,100.00
2022-10-19T03:34:25.310Z,100.00
2022-10-19T03:36:52.335Z,100.00
2022-10-19T03:39:20.272Z,100.00
2022-10-19T03:41:47.233Z,100.00
2022-10-19T03:44:14.202Z,100.00
2022-10-19T03:46:42.256Z,100.00
2022-10-19T03:49:12.298Z,100.00
2022-10-19T03:51:39.298Z,100.00
2022-10-19T03:54:08.464Z,100.00
2022-10-19T03:56:36.410Z,100.00
2022-10-19T03:59:05.503Z,100.00
2022-10-19T04:01:41.716Z,100.00
2022-10-19T04:04:12.764Z,100.00
2022-10-19T04:06:41.952Z,100.00
2022-10-19T04:09:13.503Z,100.00
2022-10-19T04:11:41.316Z,100.00
2022-10-19T04:14:18.966Z,100.00
2022-10-19T04:16:54.271Z,100.00
2022-10-19T04:19:22.796Z,100.00
2022-10-19T04:21:50.161Z,100.00
2022-10-19T04:24:19.075Z,100.00
2022-10-19T04:26:48.942Z,100.00
2022-10-19T04:29:17.660Z,100.00
2022-10-19T04:31:45.272Z,100.00
2022-10-19T04:34:12.628Z,100.00
2022-10-19T04:36:39.656Z,100.00
2022-10-19T04:39:08.265Z,100.00
2022-10-19T04:41:35.803Z,100.00
2022-10-19T04:44:06.772Z,100.00
2022-10-19T04:46:34.161Z,100.00
2022-10-19T04:49:01.300Z,100.00
2022-10-19T04:51:28.436Z,100.00
2022-10-19T04:53:59.666Z,100.00
2022-10-19T04:56:28.371Z,100.00
2022-10-19T04:58:59.479Z,100.00
2022-10-19T05:01:29.831Z,100.00
2022-10-19T05:04:00.686Z,100.00
2022-10-19T05:06:29.149Z,100.00
2022-10-19T05:08:56.873Z,100.00
2022-10-19T05:11:24.338Z,100.00
2022-10-19T05:13:52.209Z,100.00
2022-10-19T05:16:22.315Z,100.00
2022-10-19T05:18:59.101Z,100.00
2022-10-19T05:21:29.103Z,100.00
2022-10-19T05:23:57.329Z,100.00
2022-10-19T05:26:26.438Z,100.00
2022-10-19T05:28:57.094Z,100.00
2022-10-19T05:31:28.841Z,100.00
2022-10-19T05:33:56.572Z,100.00
2022-10-19T05:36:29.944Z,100.00
2022-10-19T05:38:57.918Z,100.00
2022-10-19T05:41:26.633Z,100.00
2022-10-19T05:44:01.714Z,100.00
2022-10-19T05:46:30.149Z,100.00
2022-10-19T05:48:58.635Z,100.00
2022-10-19T05:51:27.042Z,100.00
2022-10-19T05:53:55.428Z,100.00
2022-10-19T05:56:24.994Z,100.00
2022-10-19T05:58:52.971Z,100.00
2022-10-19T06:01:20.461Z,100.00
2022-10-19T06:03:51.210Z,100.00
2022-10-19T06:06:18.557Z,100.00
2022-10-19T06:08:45.623Z,100.00
2022-10-19T06:11:20.322Z,100.00
2022-10-19T06:13:49.757Z,100.00
2022-10-19T06:16:18.873Z,100.00
2022-10-19T06:18:46.159Z,100.00
2022-10-19T06:21:16.120Z,100.00
2022-10-19T06:26:15.195Z,100.00
2022-10-19T06:28:43.888Z,100.00
2022-10-19T06:31:11.440Z,100.00
2022-10-19T06:33:40.852Z,100.00
2022-10-19T06:36:14.036Z,100.00
2022-10-19T06:38:42.207Z,100.00
2022-10-19T06:41:10.093Z,100.00
2022-10-19T06:43:37.589Z,100.00
2022-10-19T06:46:07.151Z,100.00
2022-10-19T06:48:34.974Z,100.00
2022-10-19T06:51:06.320Z,100.00
2022-10-19T06:53:34.955Z,100.00
2022-10-19T06:56:04.388Z,100.00
2022-10-19T06:58:31.535Z,100.00
2022-10-19T07:01:00.213Z,100.00
2022-10-19T07:03:29.017Z,100.00
2022-10-19T07:05:57.897Z,100.00
2022-10-19T07:08:25.957Z,99.44
2022-10-19T07:10:55.219Z,98.32
2022-10-19T07:13:22.847Z,96.71
2022-10-19T07:15:50.254Z,95.95
2022-10-19T07:18:17.202Z,93.54
2022-10-19T07:20:53.552Z,92.18
2022-10-19T07:23:20.522Z,92.59
2022-10-19T07:25:47.444Z,92.80
2022-10-19T07:28:14.384Z,92.68
2022-10-19T07:30:41.369Z,92.69
2022-10-19T07:33:08.436Z,91.44
2022-10-19T07:35:37.188Z,90.04
2022-10-19T07:38:04.102Z,89.36
2022-10-19T07:40:30.989Z,90.02
2022-10-19T07:42:57.938Z,88.10
2022-10-19T07:45:24.975Z,88.85
2022-10-19T07:47:52.003Z,87.07
2022-10-19T07:50:19.157Z,88.97
2022-10-19T07:52:46.113Z,88.37
2022-10-19T07:55:13.016Z,89.12
2022-10-19T07:57:41.581Z,89.05
2022-10-19T08:00:11.637Z,89.11
2022-10-19T08:02:54.752Z,88.69
2022-10-19T08:05:25.610Z,88.92
2022-10-19T08:07:52.706Z,89.17
2022-10-19T08:10:19.717Z,89.28
2022-10-19T08:12:46.747Z,88.98
2022-10-19T08:15:13.753Z,87.97
2022-10-19T08:17:40.786Z,88.70
2022-10-19T08:20:08.369Z,87.73
2022-10-19T08:22:35.418Z,88.54
2022-10-19T08:25:03.991Z,86.95
2022-10-19T08:27:30.997Z,87.37
2022-10-19T08:29:58.009Z,86.47
2022-10-19T08:32:25.001Z,85.63
2022-10-19T08:34:51.907Z,85.40
2022-10-19T08:37:26.312Z,84.05
2022-10-19T08:39:59.910Z,84.17
2022-10-19T08:42:48.117Z,82.47
2022-10-19T08:45:31.895Z,82.55
2022-10-19T08:48:30.350Z,81.78
2022-10-19T08:50:59.473Z,80.30
2022-10-19T08:53:38.493Z,81.62
2022-10-19T08:56:45.658Z,80.78
2022-10-19T08:59:16.303Z,79.83
2022-10-19T09:02:14.386Z,81.21
2022-10-19T09:04:47.259Z,81.89
2022-10-19T09:07:31.353Z,81.76
2022-10-19T09:10:04.435Z,80.77
2022-10-19T09:12:40.499Z,80.81
2022-10-19T09:15:18.191Z,80.07
2022-10-19T09:17:45.354Z,80.56
2022-10-19T09:20:23.049Z,79.66
2022-10-19T09:23:22.255Z,79.80
2022-10-19T09:25:51.777Z,78.99
2022-10-19T09:28:45.337Z,78.58
2022-10-19T09:31:44.821Z,79.53
2022-10-19T09:34:27.165Z,78.96
2022-10-19T09:36:57.638Z,78.62
2022-10-19T09:39:29.486Z,76.58
2022-10-19T09:42:01.246Z,74.73
2022-10-19T09:44:28.284Z,73.52
2022-10-19T09:47:19.979Z,71.10
2022-10-19T09:49:49.359Z,71.00
2022-10-19T09:52:37.247Z,72.22
2022-10-19T09:55:17.008Z,71.75
2022-10-19T09:57:45.674Z,72.02
2022-10-19T10:00:25.577Z,70.03
2022-10-19T10:02:54.675Z,69.42
2022-10-19T10:05:40.194Z,69.83
2022-10-19T10:08:17.135Z,71.86
2022-10-19T10:10:47.869Z,72.85
2022-10-19T10:13:21.263Z,72.63
2022-10-19T10:16:00.606Z,72.89
2022-10-19T10:18:30.025Z,71.26
2022-10-19T10:20:59.136Z,70.80
2022-10-19T10:23:31.297Z,71.47
2022-10-19T10:26:00.362Z,68.81
2022-10-19T10:28:29.924Z,69.64
2022-10-19T10:31:03.931Z,64.24
2022-10-19T10:36:28.078Z,57.24
2022-10-19T10:39:16.434Z,55.85
2022-10-19T10:41:46.549Z,55.75
2022-10-19T10:44:26.757Z,56.40
2022-10-19T10:47:01.504Z,58.47
2022-10-19T10:49:37.878Z,62.49
2022-10-19T10:52:12.316Z,62.43
2022-10-19T10:54:39.511Z,61.13
2022-10-19T10:57:10.212Z,58.05
2022-10-19T10:59:45.870Z,58.36
2022-10-19T11:02:34.294Z,56.73
2022-10-19T11:05:12.343Z,56.04
2022-10-19T11:07:45.182Z,54.70
2022-10-19T11:10:16.717Z,53.00
2022-10-19T11:12:58.037Z,53.02
2022-10-19T11:15:48.109Z,57.08
2022-10-19T11:18:25.458Z,59.83
2022-10-19T11:21:13.357Z,61.51
2022-10-19T11:24:02.855Z,59.77
2022-10-19T11:26:48.670Z,58.58
2022-10-19T11:29:46.432Z,60.85
2022-10-19T11:32:35.883Z,62.76
2022-10-19T11:35:28.824Z,63.24
2022-10-19T11:38:30.191Z,64.81
2022-10-19T11:41:22.212Z,63.54
2022-10-19T11:44:18.028Z,64.46
2022-10-19T11:46:57.681Z,64.96
2022-10-19T11:49:48.346Z,64.86
2022-10-19T11:52:46.796Z,65.41
2022-10-19T11:55:46.247Z,67.16
2022-10-19T11:58:42.726Z,65.04
2022-10-19T12:01:34.582Z,63.23
2022-10-19T12:04:04.690Z,60.38
2022-10-19T12:06:49.593Z,62.26
2022-10-19T12:09:57.904Z,63.03
2022-10-19T12:12:37.913Z,64.19
2022-10-19T12:15:23.938Z,64.63
2022-10-19T12:17:54.275Z,64.03
2022-10-19T12:20:42.317Z,66.29
2022-10-19T12:23:26.774Z,66.77
2022-10-19T12:25:56.579Z,66.58
2022-10-19T12:28:36.243Z,67.68
2022-10-19T12:31:06.369Z,66.00
2022-10-19T12:33:47.490Z,67.24
2022-10-19T12:36:14.557Z,67.66
2022-10-19T12:39:09.327Z,65.08
2022-10-19T12:41:55.087Z,65.85
2022-10-19T12:44:43.116Z,64.54
2022-10-19T12:47:19.681Z,65.58
2022-10-19T12:49:49.668Z,64.46
2022-10-19T12:52:41.753Z,64.54
2022-10-19T12:55:31.793Z,64.49
2022-10-19T12:58:21.189Z,64.78
2022-10-19T13:01:13.533Z,65.25
2022-10-19T13:03:44.717Z,66.23
2022-10-19T13:06:16.044Z,64.70
2022-10-19T13:08:48.924Z,66.04
2022-10-19T13:11:16.085Z,66.35
2022-10-19T13:14:20.259Z,67.22
2022-10-19T13:17:01.498Z,68.86
2022-10-19T13:19:28.850Z,67.54
2022-10-19T13:22:01.897Z,66.66
2022-10-19T13:24:33.411Z,66.10
2022-10-19T13:27:03.261Z,66.51
2022-10-19T13:29:39.725Z,66.81
2022-10-19T13:32:45.050Z,67.10
2022-10-19T13:35:33.670Z,67.23
2022-10-19T13:38:09.765Z,66.53
2022-10-19T13:40:39.128Z,66.74
2022-10-19T13:43:06.099Z,66.84
2022-10-19T13:45:33.117Z,67.41
2022-10-19T13:48:15.737Z,67.45
2022-10-19T13:51:15.400Z,68.23
2022-10-19T13:54:03.434Z,67.51
2022-10-19T13:57:15.246Z,68.04
2022-10-19T14:00:10.394Z,69.11
2022-10-19T14:02:55.675Z,68.91
2022-10-19T14:05:40.938Z,69.18
2022-10-19T14:08:30.246Z,69.28
2022-10-19T14:11:04.473Z,69.22
2022-10-19T14:13:31.750Z,69.58
2022-10-19T14:16:01.759Z,70.63
2022-10-19T14:18:33.089Z,71.08
2022-10-19T14:21:09.402Z,71.60
2022-10-19T14:23:40.634Z,71.56
2022-10-19T14:26:15.085Z,72.04
2022-10-19T14:28:43.332Z,72.04
2022-10-19T14:31:18.524Z,72.07
2022-10-19T14:33:53.747Z,72.36
2022-10-19T14:36:24.026Z,72.53
2022-10-19T14:38:55.424Z,71.73
2022-10-19T14:44:03.067Z,73.07
2022-10-19T14:46:32.545Z,72.57
2022-10-19T14:49:02.522Z,73.23
2022-10-19T14:51:49.523Z,74.04
2022-10-19T14:54:23.969Z,74.50
2022-10-19T14:56:57.923Z,74.21
2022-10-19T14:59:32.516Z,74.64
2022-10-19T15:02:02.547Z,74.88
2022-10-19T15:04:33.989Z,74.84
2022-10-19T15:07:05.019Z,75.27
2022-10-19T15:09:47.784Z,75.67
2022-10-19T15:12:19.395Z,76.48
2022-10-19T15:14:48.181Z,77.87
2022-10-19T15:17:26.479Z,78.87
2022-10-19T15:19:55.912Z,78.88
2022-10-19T15:22:38.396Z,79.73
2022-10-19T15:25:08.508Z,80.71
2022-10-19T15:27:38.125Z,80.81
2022-10-19T15:30:28.664Z,80.68
2022-10-19T15:33:13.517Z,81.23
2022-10-19T15:35:44.329Z,81.45
2022-10-19T15:38:14.986Z,82.11
2022-10-19T15:40:45.847Z,82.22
2022-10-19T15:43:31.333Z,81.94
2022-10-19T15:46:01.374Z,82.45
2022-10-19T15:48:45.057Z,82.83
2022-10-19T15:51:27.214Z,83.01
2022-10-19T15:54:04.541Z,83.16
2022-10-19T15:56:34.914Z,83.34
2022-10-19T15:59:05.945Z,83.60
2022-10-19T16:01:34.138Z,83.74
2022-10-19T16:04:02.513Z,84.11
2022-10-19T16:06:33.303Z,83.90
2022-10-19T16:09:01.188Z,83.91
2022-10-19T16:11:30.544Z,84.31
2022-10-19T16:13:58.926Z,84.05
2022-10-19T16:16:30.264Z,84.01
2022-10-19T16:18:59.062Z,84.54
2022-10-19T16:21:32.540Z,84.33
2022-10-19T16:24:00.806Z,84.69
2022-10-19T16:26:29.140Z,84.93
2022-10-19T16:28:56.705Z,85.35
2022-10-19T16:31:25.257Z,85.86
2022-10-19T16:33:52.444Z,86.34
2022-10-19T16:36:20.842Z,86.59
2022-10-19T16:38:49.227Z,86.79
2022-10-19T16:41:17.382Z,87.57
2022-10-19T16:43:44.546Z,87.95
2022-10-19T16:46:11.852Z,88.42
2022-10-19T16:48:39.829Z,88.29
2022-10-19T16:51:13.089Z,88.53
2022-10-19T16:53:40.476Z,88.35
2022-10-19T16:56:11.767Z,88.29
2022-10-19T16:58:41.735Z,88.50
2022-10-19T17:01:16.097Z,88.86
2022-10-19T17:03:46.289Z,88.55
2022-10-19T17:06:14.348Z,88.93
2022-10-19T17:11:33.739Z,89.04
2022-10-19T17:14:04.051Z,89.24
2022-10-19T17:16:36.308Z,89.41
2022-10-19T17:19:07.303Z,89.03
2022-10-19T17:21:39.330Z,89.06
2022-10-19T17:24:08.669Z,88.61
2022-10-19T17:26:43.513Z,88.74
2022-10-19T17:29:11.154Z,89.00
2022-10-19T17:31:40.543Z,88.79
2022-10-19T17:34:09.481Z,88.96
2022-10-19T17:39:18.587Z,88.92
2022-10-19T17:41:48.174Z,88.77
2022-10-19T17:44:18.818Z,88.46
2022-10-19T17:46:48.674Z,88.42
2022-10-19T17:49:17.105Z,88.80
2022-10-19T17:51:44.491Z,89.13
2022-10-19T17:54:17.049Z,89.51
2022-10-19T17:56:47.247Z,90.22
2022-10-19T17:59:14.776Z,90.74
2022-10-19T18:01:42.466Z,91.13
2022-10-19T18:04:10.114Z,91.01
2022-10-19T18:06:39.109Z,91.08
2022-10-19T18:09:09.682Z,91.48
2022-10-19T18:11:45.913Z,91.78
2022-10-19T18:14:14.293Z,92.09
2022-10-19T18:16:47.413Z,92.32
2022-10-19T18:19:17.529Z,92.61
2022-10-19T18:21:47.550Z,92.98
2022-10-19T18:24:20.034Z,93.01
2022-10-19T18:26:50.145Z,93.57
2022-10-19T18:29:22.405Z,93.62
2022-10-19T18:31:53.221Z,93.79
2022-10-19T18:34:26.692Z,94.35
2022-10-19T18:36:55.222Z,95.05
2022-10-19T18:39:24.638Z,95.75
2022-10-19T18:41:55.202Z,96.46
2022-10-19T18:44:27.255Z,97.05
2022-10-19T18:46:59.849Z,97.36
2022-10-19T18:49:28.084Z,97.41
2022-10-19T18:52:00.159Z,98.73
2022-10-19T18:54:28.645Z,99.89
2022-10-19T18:56:58.476Z,100.00
2022-10-19T19:01:56.189Z,100.00
2022-10-19T19:04:23.429Z,100.00
2022-10-19T19:06:53.407Z,100.00
2022-10-19T19:09:21.928Z,100.00
2022-10-19T19:11:49.400Z,100.00
2022-10-19T19:14:21.764Z,100.00
2022-10-19T19:16:50.933Z,100.00
2022-10-19T19:19:20.786Z,100.00
2022-10-19T19:21:50.576Z,100.00
2022-10-19T19:24:20.343Z,99.89
2022-10-19T19:26:52.202Z,100.00
2022-10-19T19:29:21.129Z,100.00
2022-10-19T19:31:49.861Z,100.00
2022-10-19T19:34:24.733Z,98.46
2022-10-19T19:36:52.235Z,97.73
2022-10-19T19:39:22.801Z,97.70
2022-10-19T19:41:51.321Z,97.43
2022-10-19T19:44:19.829Z,96.93
2022-10-19T19:46:48.363Z,96.94
2022-10-19T19:49:21.463Z,97.60
2022-10-19T19:51:49.992Z,97.96
2022-10-19T19:54:17.835Z,97.93
2022-10-19T19:56:45.947Z,97.90
2022-10-19T19:59:14.454Z,97.86
2022-10-19T20:01:44.199Z,97.47
2022-10-19T20:04:12.060Z,96.95
2022-10-19T20:06:41.754Z,97.03
2022-10-19T20:09:13.646Z,96.92
2022-10-19T20:11:54.202Z,96.49
2022-10-19T20:14:24.820Z,95.88
2022-10-19T20:16:52.356Z,95.70
2022-10-19T20:19:22.805Z,95.16
2022-10-19T20:21:51.584Z,94.75
2022-10-19T20:24:20.052Z,94.59
2022-10-19T20:26:52.602Z,93.88
2022-10-19T20:29:22.309Z,93.82
2022-10-19T20:31:53.746Z,93.84
2022-10-19T20:34:23.155Z,93.59
2022-10-19T20:36:58.454Z,94.27
2022-10-19T20:39:30.007Z,94.69
2022-10-19T20:41:57.154Z,95.02
2022-10-19T20:44:24.539Z,94.72
2022-10-19T20:46:59.433Z,94.05
2022-10-19T20:49:28.492Z,94.33
2022-10-19T20:51:56.015Z,94.52
2022-10-19T20:54:23.243Z,94.29
2022-10-19T20:56:50.185Z,94.47
2022-10-19T20:59:19.342Z,93.96
2022-10-19T21:01:52.692Z,94.26
2022-10-19T21:04:26.438Z,94.92
2022-10-19T21:07:00.355Z,94.72
2022-10-19T21:09:27.423Z,95.18
2022-10-19T21:11:54.453Z,95.70
2022-10-19T21:14:28.334Z,95.49
2022-10-19T21:16:58.597Z,95.09
2022-10-19T21:19:31.347Z,94.95
2022-10-19T21:22:04.427Z,95.10
2022-10-19T21:24:35.606Z,95.55
2022-10-19T21:27:06.828Z,96.47
2022-10-19T21:29:37.414Z,96.82
2022-10-19T21:32:12.262Z,96.75
2022-10-19T21:34:39.286Z,97.40
2022-10-19T21:37:07.326Z,97.86
2022-10-19T21:39:34.474Z,98.31
2022-10-19T21:42:02.867Z,98.78
2022-10-19T21:44:30.809Z,98.50
2022-10-19T21:46:59.854Z,98.46
2022-10-19T21:49:34.869Z,98.53
2022-10-19T21:52:01.943Z,98.42
2022-10-19T21:54:29.926Z,98.88
2022-10-19T21:57:08.789Z,98.78
2022-10-19T21:59:35.855Z,98.90
2022-10-19T22:02:04.881Z,99.19
2022-10-19T22:04:32.823Z,99.86
2022-10-19T22:07:01.617Z,100.00
2022-10-19T22:09:31.667Z,100.00
2022-10-19T22:11:58.699Z,100.00
2022-10-19T22:14:25.727Z,100.00
2022-10-19T22:16:53.783Z,100.00
2022-10-19T22:19:23.946Z,100.00
2022-10-19T22:22:02.089Z,100.00
2022-10-19T22:24:29.080Z,100.00
2022-10-19T22:27:01.883Z,100.00
2022-10-19T22:29:28.905Z,100.00
2022-10-19T22:31:57.923Z,100.00
2022-10-19T22:34:29.096Z,100.00
2022-10-19T22:37:01.316Z,100.00
2022-10-19T22:39:30.279Z,100.00
2022-10-19T22:42:25.367Z,100.00
2022-10-19T22:44:52.386Z,100.00
2022-10-19T22:47:19.474Z,100.00
2022-10-19T22:49:54.582Z,100.00
2022-10-19T22:52:22.624Z,100.00
2022-10-19T22:54:51.433Z,100.00
2022-10-19T22:57:18.489Z,100.00
2022-10-19T22:59:51.347Z,100.00
2022-10-19T23:02:19.319Z,100.00
2022-10-19T23:04:46.427Z,100.00
2022-10-19T23:07:14.471Z,100.00
2022-10-19T23:09:45.473Z,100.00
2022-10-19T23:12:12.539Z,100.00
2022-10-19T23:14:40.519Z,100.00
2022-10-19T23:17:07.599Z,100.00
2022-10-19T23:19:36.696Z,100.00
2022-10-19T23:22:12.817Z,100.00
2022-10-19T23:24:45.012Z,100.00
2022-10-19T23:27:19.110Z,100.00
2022-10-19T23:29:47.238Z,100.00
2022-10-19T23:32:16.413Z,100.00
2022-10-19T23:34:47.484Z,100.00
2022-10-19T23:37:17.766Z,100.00
2022-10-19T23:39:44.800Z,100.00
2022-10-19T23:42:11.799Z,100.00
2022-10-19T23:44:39.792Z,100.00
2022-10-19T23:47:07.777Z,100.00
2022-10-19T23:49:34.806Z,100.00
2022-10-19T23:52:05.983Z,100.00
2022-10-19T23:54:39.149Z,100.00
2022-10-19T23:57:12.984Z,100.00
2022-10-19T23:59:41.064Z,100.00
